sensor_id;sensor_type;location;lat;lon;timestamp;P1;durP1;ratioP1;P2;durP2;ratioP2
75486;SDS011;65009;44.762;21.516;2023-02-01T00:02:01;64.37;;;34.23;;
75486;SDS011;65009;44.762;21.516;2023-02-01T00:04:28;83.93;;;44.60;;
75486;SDS011;65009;44.762;21.516;2023-02-01T00:06:54;78.87;;;42.63;;
75486;SDS011;65009;44.762;21.516;2023-02-01T00:09:20;70.67;;;41.20;;
75486;SDS011;65009;44.762;21.516;2023-02-01T00:11:46;75.57;;;43.63;;
75486;SDS011;65009;44.762;21.516;2023-02-01T00:14:13;93.33;;;53.03;;
75486;SDS011;65009;44.762;21.516;2023-02-01T00:16:39;83.30;;;48.80;;
75486;SDS011;65009;44.762;21.516;2023-02-01T00:19:12;93.70;;;54.30;;
75486;SDS011;65009;44.762;21.516;2023-02-01T00:21:39;88.93;;;51.33;;
75486;SDS011;65009;44.762;21.516;2023-02-01T00:24:05;99.60;;;53.73;;
75486;SDS011;65009;44.762;21.516;2023-02-01T00:26:38;101.97;;;53.33;;
75486;SDS011;65009;44.762;21.516;2023-02-01T00:29:06;92.73;;;51.73;;
75486;SDS011;65009;44.762;21.516;2023-02-01T00:31:32;96.90;;;50.87;;
75486;SDS011;65009;44.762;21.516;2023-02-01T00:33:58;84.80;;;47.93;;
75486;SDS011;65009;44.762;21.516;2023-02-01T00:36:25;67.33;;;38.90;;
75486;SDS011;65009;44.762;21.516;2023-02-01T00:38:51;67.03;;;36.10;;
75486;SDS011;65009;44.762;21.516;2023-02-01T00:41:18;61.43;;;33.10;;
75486;SDS011;65009;44.762;21.516;2023-02-01T00:43:44;53.77;;;30.40;;
75486;SDS011;65009;44.762;21.516;2023-02-01T00:46:11;53.17;;;28.23;;
75486;SDS011;65009;44.762;21.516;2023-02-01T00:48:38;62.73;;;34.87;;
75486;SDS011;65009;44.762;21.516;2023-02-01T00:51:05;77.23;;;39.43;;
75486;SDS011;65009;44.762;21.516;2023-02-01T00:53:32;53.43;;;29.47;;
75486;SDS011;65009;44.762;21.516;2023-02-01T00:55:58;65.60;;;33.50;;
75486;SDS011;65009;44.762;21.516;2023-02-01T00:58:24;91.47;;;43.53;;
75486;SDS011;65009;44.762;21.516;2023-02-01T01:01:04;51.80;;;27.60;;
75486;SDS011;65009;44.762;21.516;2023-02-01T01:03:31;64.93;;;34.60;;
75486;SDS011;65009;44.762;21.516;2023-02-01T01:05:58;88.80;;;48.23;;
75486;SDS011;65009;44.762;21.516;2023-02-01T01:08:25;95.63;;;49.17;;
75486;SDS011;65009;44.762;21.516;2023-02-01T01:10:51;98.47;;;46.50;;
75486;SDS011;65009;44.762;21.516;2023-02-01T01:13:17;158.43;;;74.13;;
75486;SDS011;65009;44.762;21.516;2023-02-01T01:15:43;165.47;;;81.67;;
75486;SDS011;65009;44.762;21.516;2023-02-01T01:18:10;70.07;;;36.93;;
75486;SDS011;65009;44.762;21.516;2023-02-01T01:20:37;96.27;;;52.33;;
75486;SDS011;65009;44.762;21.516;2023-02-01T01:23:04;73.17;;;41.03;;
75486;SDS011;65009;44.762;21.516;2023-02-01T01:25:30;55.33;;;28.03;;
75486;SDS011;65009;44.762;21.516;2023-02-01T01:27:57;32.93;;;17.70;;
75486;SDS011;65009;44.762;21.516;2023-02-01T01:30:23;39.77;;;22.77;;
75486;SDS011;65009;44.762;21.516;2023-02-01T01:32:51;49.20;;;25.37;;
75486;SDS011;65009;44.762;21.516;2023-02-01T01:35:17;61.83;;;29.60;;
75486;SDS011;65009;44.762;21.516;2023-02-01T01:37:43;38.30;;;21.43;;
75486;SDS011;65009;44.762;21.516;2023-02-01T01:40:10;51.20;;;24.17;;
75486;SDS011;65009;44.762;21.516;2023-02-01T01:42:40;56.50;;;26.33;;
75486;SDS011;65009;44.762;21.516;2023-02-01T01:45:22;75.50;;;34.07;;
75486;SDS011;65009;44.762;21.516;2023-02-01T01:47:51;59.13;;;29.35;;
75486;SDS011;65009;44.762;21.516;2023-02-01T01:50:20;88.57;;;41.37;;
75486;SDS011;65009;44.762;21.516;2023-02-01T01:52:47;46.30;;;22.53;;
75486;SDS011;65009;44.762;21.516;2023-02-01T01:55:14;62.97;;;31.33;;
75486;SDS011;65009;44.762;21.516;2023-02-01T01:57:43;55.30;;;27.47;;
75486;SDS011;65009;44.762;21.516;2023-02-01T02:00:12;53.90;;;26.33;;
75486;SDS011;65009;44.762;21.516;2023-02-01T02:02:39;86.77;;;39.67;;
75486;SDS011;65009;44.762;21.516;2023-02-01T02:05:06;42.27;;;21.70;;
75486;SDS011;65009;44.762;21.516;2023-02-01T02:07:34;100.87;;;48.03;;
75486;SDS011;65009;44.762;21.516;2023-02-01T02:10:03;60.80;;;30.00;;
75486;SDS011;65009;44.762;21.516;2023-02-01T02:12:30;39.00;;;19.60;;
75486;SDS011;65009;44.762;21.516;2023-02-01T02:14:57;74.37;;;31.50;;
75486;SDS011;65009;44.762;21.516;2023-02-01T02:31:12;71.10;;;33.00;;
75486;SDS011;65009;44.762;21.516;2023-02-01T02:43:23;71.90;;;35.47;;
75486;SDS011;65009;44.762;21.516;2023-02-01T02:46:19;116.73;;;54.17;;
75486;SDS011;65009;44.762;21.516;2023-02-01T02:49:23;127.27;;;56.37;;
75486;SDS011;65009;44.762;21.516;2023-02-01T02:51:59;56.77;;;31.57;;
75486;SDS011;65009;44.762;21.516;2023-02-01T02:54:47;112.87;;;51.30;;
75486;SDS011;65009;44.762;21.516;2023-02-01T02:57:19;76.23;;;38.57;;
75486;SDS011;65009;44.762;21.516;2023-02-01T03:00:07;122.97;;;56.83;;
75486;SDS011;65009;44.762;21.516;2023-02-01T03:02:52;133.17;;;61.20;;
75486;SDS011;65009;44.762;21.516;2023-02-01T03:05:40;91.37;;;45.93;;
75486;SDS011;65009;44.762;21.516;2023-02-01T03:08:16;140.63;;;65.77;;
75486;SDS011;65009;44.762;21.516;2023-02-01T03:15:52;133.23;;;60.43;;
75486;SDS011;65009;44.762;21.516;2023-02-01T03:18:24;88.32;;;42.88;;
75486;SDS011;65009;44.762;21.516;2023-02-01T03:20:52;275.50;;;122.03;;
75486;SDS011;65009;44.762;21.516;2023-02-01T03:23:19;133.30;;;60.83;;
75486;SDS011;65009;44.762;21.516;2023-02-01T03:25:47;183.23;;;81.73;;
75486;SDS011;65009;44.762;21.516;2023-02-01T03:28:14;63.70;;;32.53;;
75486;SDS011;65009;44.762;21.516;2023-02-01T03:30:42;78.00;;;39.30;;
75486;SDS011;65009;44.762;21.516;2023-02-01T03:33:09;90.57;;;44.33;;
75486;SDS011;65009;44.762;21.516;2023-02-01T03:35:57;62.10;;;31.53;;
75486;SDS011;65009;44.762;21.516;2023-02-01T03:41:24;78.23;;;40.70;;
75486;SDS011;65009;44.762;21.516;2023-02-01T03:44:08;96.83;;;47.47;;
75486;SDS011;65009;44.762;21.516;2023-02-01T03:46:33;59.03;;;30.90;;
75486;SDS011;65009;44.762;21.516;2023-02-01T03:49:01;91.50;;;50.47;;
75486;SDS011;65009;44.762;21.516;2023-02-01T03:51:28;54.43;;;28.10;;
75486;SDS011;65009;44.762;21.516;2023-02-01T03:53:55;80.13;;;42.63;;
75486;SDS011;65009;44.762;21.516;2023-02-01T03:56:22;109.23;;;56.10;;
75486;SDS011;65009;44.762;21.516;2023-02-01T03:58:51;57.37;;;32.90;;
75486;SDS011;65009;44.762;21.516;2023-02-01T04:01:27;86.33;;;45.20;;
75486;SDS011;65009;44.762;21.516;2023-02-01T04:03:53;93.67;;;51.73;;
75486;SDS011;65009;44.762;21.516;2023-02-01T04:06:19;90.10;;;54.10;;
75486;SDS011;65009;44.762;21.516;2023-02-01T04:08:45;96.20;;;55.13;;
75486;SDS011;65009;44.762;21.516;2023-02-01T04:11:12;118.73;;;66.90;;
75486;SDS011;65009;44.762;21.516;2023-02-01T04:13:38;76.90;;;43.33;;
75486;SDS011;65009;44.762;21.516;2023-02-01T04:16:04;100.03;;;55.90;;
75486;SDS011;65009;44.762;21.516;2023-02-01T04:18:30;77.67;;;44.00;;
75486;SDS011;65009;44.762;21.516;2023-02-01T04:20:57;40.13;;;25.13;;
75486;SDS011;65009;44.762;21.516;2023-02-01T04:23:23;66.47;;;37.57;;
75486;SDS011;65009;44.762;21.516;2023-02-01T04:25:49;38.53;;;22.83;;
75486;SDS011;65009;44.762;21.516;2023-02-01T04:28:15;47.20;;;24.50;;
75486;SDS011;65009;44.762;21.516;2023-02-01T04:30:41;36.30;;;20.63;;
75486;SDS011;65009;44.762;21.516;2023-02-01T04:33:07;76.67;;;32.20;;
75486;SDS011;65009;44.762;21.516;2023-02-01T04:35:33;140.90;;;51.50;;
75486;SDS011;65009;44.762;21.516;2023-02-01T04:38:00;125.43;;;47.43;;
75486;SDS011;65009;44.762;21.516;2023-02-01T04:40:26;100.83;;;44.37;;
75486;SDS011;65009;44.762;21.516;2023-02-01T04:42:52;105.50;;;47.20;;
75486;SDS011;65009;44.762;21.516;2023-02-01T04:45:18;93.83;;;51.17;;
75486;SDS011;65009;44.762;21.516;2023-02-01T04:47:44;86.90;;;47.10;;
75486;SDS011;65009;44.762;21.516;2023-02-01T04:50:11;86.87;;;45.27;;
75486;SDS011;65009;44.762;21.516;2023-02-01T04:52:37;95.87;;;51.67;;
75486;SDS011;65009;44.762;21.516;2023-02-01T04:55:03;96.70;;;52.47;;
75486;SDS011;65009;44.762;21.516;2023-02-01T04:57:29;81.60;;;45.57;;
75486;SDS011;65009;44.762;21.516;2023-02-01T04:59:55;76.87;;;42.33;;
75486;SDS011;65009;44.762;21.516;2023-02-01T05:02:22;71.07;;;38.83;;
75486;SDS011;65009;44.762;21.516;2023-02-01T05:04:48;66.00;;;36.60;;
75486;SDS011;65009;44.762;21.516;2023-02-01T05:07:15;59.47;;;35.37;;
75486;SDS011;65009;44.762;21.516;2023-02-01T05:09:41;62.13;;;35.97;;
75486;SDS011;65009;44.762;21.516;2023-02-01T05:12:08;66.60;;;35.63;;
75486;SDS011;65009;44.762;21.516;2023-02-01T05:14:53;121.93;;;58.23;;
75486;SDS011;65009;44.762;21.516;2023-02-01T05:17:19;165.27;;;71.93;;
75486;SDS011;65009;44.762;21.516;2023-02-01T05:19:46;92.60;;;49.63;;
75486;SDS011;65009;44.762;21.516;2023-02-01T05:22:12;102.17;;;54.03;;
75486;SDS011;65009;44.762;21.516;2023-02-01T05:24:38;84.03;;;44.90;;
75486;SDS011;65009;44.762;21.516;2023-02-01T05:27:04;87.70;;;47.37;;
75486;SDS011;65009;44.762;21.516;2023-02-01T05:29:30;65.87;;;33.07;;
75486;SDS011;65009;44.762;21.516;2023-02-01T05:31:56;54.23;;;31.50;;
75486;SDS011;65009;44.762;21.516;2023-02-01T05:34:22;52.63;;;28.97;;
75486;SDS011;65009;44.762;21.516;2023-02-01T05:36:48;62.90;;;36.83;;
75486;SDS011;65009;44.762;21.516;2023-02-01T05:39:14;88.27;;;41.93;;
75486;SDS011;65009;44.762;21.516;2023-02-01T05:41:41;85.47;;;41.77;;
75486;SDS011;65009;44.762;21.516;2023-02-01T05:44:07;77.83;;;40.40;;
75486;SDS011;65009;44.762;21.516;2023-02-01T05:46:33;80.27;;;41.67;;
75486;SDS011;65009;44.762;21.516;2023-02-01T05:49:00;79.27;;;43.47;;
75486;SDS011;65009;44.762;21.516;2023-02-01T05:51:26;70.33;;;42.33;;
75486;SDS011;65009;44.762;21.516;2023-02-01T05:53:52;51.43;;;30.27;;
75486;SDS011;65009;44.762;21.516;2023-02-01T05:56:18;56.70;;;32.10;;
75486;SDS011;65009;44.762;21.516;2023-02-01T05:58:44;55.30;;;33.70;;
75486;SDS011;65009;44.762;21.516;2023-02-01T06:01:10;57.20;;;32.17;;
75486;SDS011;65009;44.762;21.516;2023-02-01T06:03:36;49.23;;;27.23;;
75486;SDS011;65009;44.762;21.516;2023-02-01T06:06:02;48.90;;;28.83;;
75486;SDS011;65009;44.762;21.516;2023-02-01T06:08:29;49.03;;;27.83;;
75486;SDS011;65009;44.762;21.516;2023-02-01T06:11:02;42.40;;;25.57;;
75486;SDS011;65009;44.762;21.516;2023-02-01T06:13:29;41.30;;;23.53;;
75486;SDS011;65009;44.762;21.516;2023-02-01T06:15:55;39.27;;;22.27;;
75486;SDS011;65009;44.762;21.516;2023-02-01T06:18:22;46.60;;;27.50;;
75486;SDS011;65009;44.762;21.516;2023-02-01T06:20:55;63.87;;;38.20;;
75486;SDS011;65009;44.762;21.516;2023-02-01T06:23:21;68.83;;;44.20;;
75486;SDS011;65009;44.762;21.516;2023-02-01T06:42:55;138.75;;;88.93;;
75486;SDS011;65009;44.762;21.516;2023-02-01T06:45:22;125.67;;;73.73;;
75486;SDS011;65009;44.762;21.516;2023-02-01T06:47:48;116.90;;;68.90;;
75486;SDS011;65009;44.762;21.516;2023-02-01T06:50:14;118.20;;;69.87;;
75486;SDS011;65009;44.762;21.516;2023-02-01T06:52:40;118.73;;;63.03;;
75486;SDS011;65009;44.762;21.516;2023-02-01T06:55:07;119.23;;;66.97;;
75486;SDS011;65009;44.762;21.516;2023-02-01T06:57:33;121.17;;;65.37;;
75486;SDS011;65009;44.762;21.516;2023-02-01T07:00:01;134.03;;;77.27;;
75486;SDS011;65009;44.762;21.516;2023-02-01T07:02:28;142.73;;;82.33;;
75486;SDS011;65009;44.762;21.516;2023-02-01T07:04:54;123.10;;;69.30;;
75486;SDS011;65009;44.762;21.516;2023-02-01T07:07:20;112.33;;;64.73;;
75486;SDS011;65009;44.762;21.516;2023-02-01T07:09:48;125.97;;;68.80;;
75486;SDS011;65009;44.762;21.516;2023-02-01T07:12:14;116.97;;;60.80;;
75486;SDS011;65009;44.762;21.516;2023-02-01T07:14:40;124.53;;;68.20;;
75486;SDS011;65009;44.762;21.516;2023-02-01T07:17:06;120.03;;;66.90;;
75486;SDS011;65009;44.762;21.516;2023-02-01T07:19:33;135.77;;;72.00;;
75486;SDS011;65009;44.762;21.516;2023-02-01T07:21:59;104.83;;;58.47;;
75486;SDS011;65009;44.762;21.516;2023-02-01T07:24:25;93.00;;;54.97;;
75486;SDS011;65009;44.762;21.516;2023-02-01T07:26:51;91.00;;;52.47;;
75486;SDS011;65009;44.762;21.516;2023-02-01T07:29:18;86.17;;;49.53;;
75486;SDS011;65009;44.762;21.516;2023-02-01T07:31:44;86.67;;;49.07;;
75486;SDS011;65009;44.762;21.516;2023-02-01T07:34:10;89.13;;;51.20;;
75486;SDS011;65009;44.762;21.516;2023-02-01T07:36:36;82.20;;;48.57;;
75486;SDS011;65009;44.762;21.516;2023-02-01T07:39:03;234.87;;;98.87;;
75486;SDS011;65009;44.762;21.516;2023-02-01T07:41:30;139.27;;;63.93;;
75486;SDS011;65009;44.762;21.516;2023-02-01T07:43:56;95.50;;;53.77;;
75486;SDS011;65009;44.762;21.516;2023-02-01T07:46:22;84.10;;;49.73;;
75486;SDS011;65009;44.762;21.516;2023-02-01T07:48:49;151.50;;;86.73;;
75486;SDS011;65009;44.762;21.516;2023-02-01T07:51:15;177.07;;;99.80;;
75486;SDS011;65009;44.762;21.516;2023-02-01T07:53:47;143.90;;;84.13;;
75486;SDS011;65009;44.762;21.516;2023-02-01T07:56:14;131.13;;;76.82;;
75486;SDS011;65009;44.762;21.516;2023-02-01T07:58:41;88.67;;;54.83;;
75486;SDS011;65009;44.762;21.516;2023-02-01T08:01:14;94.80;;;52.60;;
75486;SDS011;65009;44.762;21.516;2023-02-01T08:03:50;94.07;;;52.40;;
75486;SDS011;65009;44.762;21.516;2023-02-01T08:06:17;86.93;;;48.27;;
75486;SDS011;65009;44.762;21.516;2023-02-01T08:08:44;75.97;;;43.67;;
75486;SDS011;65009;44.762;21.516;2023-02-01T08:11:12;70.10;;;40.17;;
75486;SDS011;65009;44.762;21.516;2023-02-01T08:13:38;56.77;;;36.33;;
75486;SDS011;65009;44.762;21.516;2023-02-01T08:16:05;68.80;;;41.93;;
75486;SDS011;65009;44.762;21.516;2023-02-01T08:18:33;65.67;;;40.80;;
75486;SDS011;65009;44.762;21.516;2023-02-01T08:23:30;58.73;;;35.63;;
75486;SDS011;65009;44.762;21.516;2023-02-01T08:26:18;58.17;;;37.63;;
75486;SDS011;65009;44.762;21.516;2023-02-01T08:28:44;54.83;;;31.93;;
75486;SDS011;65009;44.762;21.516;2023-02-01T08:31:11;51.73;;;28.70;;
75486;SDS011;65009;44.762;21.516;2023-02-01T08:33:39;46.07;;;29.63;;
75486;SDS011;65009;44.762;21.516;2023-02-01T08:36:06;42.73;;;25.87;;
75486;SDS011;65009;44.762;21.516;2023-02-01T08:38:34;44.00;;;25.30;;
75486;SDS011;65009;44.762;21.516;2023-02-01T08:41:04;40.13;;;24.53;;
75486;SDS011;65009;44.762;21.516;2023-02-01T08:43:30;41.53;;;22.00;;
75486;SDS011;65009;44.762;21.516;2023-02-01T08:45:57;36.20;;;20.20;;
75486;SDS011;65009;44.762;21.516;2023-02-01T08:48:23;47.23;;;22.07;;
75486;SDS011;65009;44.762;21.516;2023-02-01T08:50:49;39.90;;;20.60;;
75486;SDS011;65009;44.762;21.516;2023-02-01T08:53:15;49.50;;;22.77;;
75486;SDS011;65009;44.762;21.516;2023-02-01T08:55:41;33.97;;;18.60;;
75486;SDS011;65009;44.762;21.516;2023-02-01T08:58:07;26.50;;;16.60;;
75486;SDS011;65009;44.762;21.516;2023-02-01T09:00:33;26.07;;;17.30;;
75486;SDS011;65009;44.762;21.516;2023-02-01T09:02:59;28.73;;;16.23;;
75486;SDS011;65009;44.762;21.516;2023-02-01T09:05:26;25.90;;;15.57;;
75486;SDS011;65009;44.762;21.516;2023-02-01T09:07:53;26.15;;;16.23;;
75486;SDS011;65009;44.762;21.516;2023-02-01T09:10:19;24.90;;;16.42;;
75486;SDS011;65009;44.762;21.516;2023-02-01T09:12:45;26.45;;;15.43;;
75486;SDS011;65009;44.762;21.516;2023-02-01T09:15:11;27.48;;;17.85;;
75486;SDS011;65009;44.762;21.516;2023-02-01T09:17:37;29.02;;;15.65;;
75486;SDS011;65009;44.762;21.516;2023-02-01T09:20:04;24.40;;;15.35;;
75486;SDS011;65009;44.762;21.516;2023-02-01T09:22:30;20.50;;;14.50;;
75486;SDS011;65009;44.762;21.516;2023-02-01T09:24:57;25.75;;;14.05;;
75486;SDS011;65009;44.762;21.516;2023-02-01T09:30:20;23.20;;;14.07;;
75486;SDS011;65009;44.762;21.516;2023-02-01T09:32:46;22.55;;;15.20;;
75486;SDS011;65009;44.762;21.516;2023-02-01T09:35:12;25.17;;;14.57;;
75486;SDS011;65009;44.762;21.516;2023-02-01T09:37:38;25.05;;;14.98;;
75486;SDS011;65009;44.762;21.516;2023-02-01T09:40:04;22.20;;;14.65;;
75486;SDS011;65009;44.762;21.516;2023-02-01T09:47:38;23.90;;;13.20;;
75486;SDS011;65009;44.762;21.516;2023-02-01T09:50:11;21.77;;;15.18;;
75486;SDS011;65009;44.762;21.516;2023-02-01T09:52:45;20.42;;;13.30;;
75486;SDS011;65009;44.762;21.516;2023-02-01T09:55:18;21.92;;;13.02;;
75486;SDS011;65009;44.762;21.516;2023-02-01T10:00:14;19.27;;;12.88;;
75486;SDS011;65009;44.762;21.516;2023-02-01T10:02:43;20.63;;;14.38;;
75486;SDS011;65009;44.762;21.516;2023-02-01T10:05:13;35.08;;;21.80;;
75486;SDS011;65009;44.762;21.516;2023-02-01T10:15:20;29.80;;;19.17;;
75486;SDS011;65009;44.762;21.516;2023-02-01T10:17:51;38.47;;;23.17;;
75486;SDS011;65009;44.762;21.516;2023-02-01T10:20:28;25.92;;;15.98;;
75486;SDS011;65009;44.762;21.516;2023-02-01T10:25:32;29.50;;;18.10;;
75486;SDS011;65009;44.762;21.516;2023-02-01T10:28:03;29.13;;;16.70;;
75486;SDS011;65009;44.762;21.516;2023-02-01T10:30:31;79.32;;;40.42;;
75486;SDS011;65009;44.762;21.516;2023-02-01T10:33:23;27.52;;;16.83;;
75486;SDS011;65009;44.762;21.516;2023-02-01T10:35:46;156.23;;;73.75;;
75486;SDS011;65009;44.762;21.516;2023-02-01T10:38:33;53.00;;;27.17;;
75486;SDS011;65009;44.762;21.516;2023-02-01T10:43:40;90.10;;;39.53;;
75486;SDS011;65009;44.762;21.516;2023-02-01T10:46:06;63.03;;;32.08;;
75486;SDS011;65009;44.762;21.516;2023-02-01T10:48:33;49.63;;;28.05;;
75486;SDS011;65009;44.762;21.516;2023-02-01T10:51:00;50.03;;;28.25;;
75486;SDS011;65009;44.762;21.516;2023-02-01T10:53:33;31.52;;;18.75;;
75486;SDS011;65009;44.762;21.516;2023-02-01T10:56:09;62.67;;;32.92;;
75486;SDS011;65009;44.762;21.516;2023-02-01T10:58:35;43.42;;;23.55;;
75486;SDS011;65009;44.762;21.516;2023-02-01T11:01:25;21.92;;;12.07;;
75486;SDS011;65009;44.762;21.516;2023-02-01T11:03:53;98.32;;;44.70;;
75486;SDS011;65009;44.762;21.516;2023-02-01T11:08:59;62.13;;;30.58;;
75486;SDS011;65009;44.762;21.516;2023-02-01T11:11:26;33.17;;;20.98;;
75486;SDS011;65009;44.762;21.516;2023-02-01T11:13:54;36.38;;;21.67;;
75486;SDS011;65009;44.762;21.516;2023-02-01T11:16:20;24.90;;;16.73;;
75486;SDS011;65009;44.762;21.516;2023-02-01T11:18:47;21.83;;;14.30;;
75486;SDS011;65009;44.762;21.516;2023-02-01T11:21:18;30.05;;;19.27;;
75486;SDS011;65009;44.762;21.516;2023-02-01T11:23:46;44.08;;;22.75;;
75486;SDS011;65009;44.762;21.516;2023-02-01T11:36:00;14.23;;;9.03;;
75486;SDS011;65009;44.762;21.516;2023-02-01T11:38:28;9.25;;;6.25;;
75486;SDS011;65009;44.762;21.516;2023-02-01T11:40:55;22.73;;;7.28;;
75486;SDS011;65009;44.762;21.516;2023-02-01T11:43:25;8.07;;;5.40;;
75486;SDS011;65009;44.762;21.516;2023-02-01T11:48:21;10.38;;;6.60;;
75486;SDS011;65009;44.762;21.516;2023-02-01T11:53:25;8.80;;;5.22;;
75486;SDS011;65009;44.762;21.516;2023-02-01T11:58:26;6.88;;;4.63;;
75486;SDS011;65009;44.762;21.516;2023-02-01T12:13:55;20.08;;;11.90;;
75486;SDS011;65009;44.762;21.516;2023-02-01T12:18:56;15.35;;;9.48;;
75486;SDS011;65009;44.762;21.516;2023-02-01T12:21:30;11.38;;;7.78;;
75486;SDS011;65009;44.762;21.516;2023-02-01T12:26:55;10.02;;;6.28;;
75486;SDS011;65009;44.762;21.516;2023-02-01T12:35:33;12.27;;;7.40;;
75486;SDS011;65009;44.762;21.516;2023-02-01T12:42:32;21.40;;;12.00;;
75486;SDS011;65009;44.762;21.516;2023-02-01T12:50:49;186.47;;;91.87;;
75486;SDS011;65009;44.762;21.516;2023-02-01T12:53:19;357.77;;;173.80;;
75486;SDS011;65009;44.762;21.516;2023-02-01T12:55:53;163.43;;;82.30;;
75486;SDS011;65009;44.762;21.516;2023-02-01T12:58:24;152.47;;;77.93;;
75486;SDS011;65009;44.762;21.516;2023-02-01T13:03:35;80.63;;;47.67;;
75486;SDS011;65009;44.762;21.516;2023-02-01T13:06:13;106.37;;;66.93;;
75486;SDS011;65009;44.762;21.516;2023-02-01T13:08:43;114.00;;;75.37;;
75486;SDS011;65009;44.762;21.516;2023-02-01T13:11:13;67.87;;;45.17;;
75486;SDS011;65009;44.762;21.516;2023-02-01T13:18:57;33.33;;;24.83;;
75486;SDS011;65009;44.762;21.516;2023-02-01T13:23:52;17.13;;;9.77;;
75486;SDS011;65009;44.762;21.516;2023-02-01T13:26:18;12.90;;;8.60;;
75486;SDS011;65009;44.762;21.516;2023-02-01T13:28:55;21.40;;;13.70;;
75486;SDS011;65009;44.762;21.516;2023-02-01T13:41:54;32.30;;;23.77;;
75486;SDS011;65009;44.762;21.516;2023-02-01T13:44:28;38.37;;;29.70;;
75486;SDS011;65009;44.762;21.516;2023-02-01T13:46:58;36.60;;;24.63;;
75486;SDS011;65009;44.762;21.516;2023-02-01T13:49:29;23.80;;;16.53;;
75486;SDS011;65009;44.762;21.516;2023-02-01T13:51:56;19.23;;;11.50;;
75486;SDS011;65009;44.762;21.516;2023-02-01T13:54:30;18.73;;;11.53;;
75486;SDS011;65009;44.762;21.516;2023-02-01T13:56:58;19.03;;;12.47;;
75486;SDS011;65009;44.762;21.516;2023-02-01T14:04:57;16.08;;;11.10;;
75486;SDS011;65009;44.762;21.516;2023-02-01T14:07:25;20.15;;;11.18;;
75486;SDS011;65009;44.762;21.516;2023-02-01T14:09:52;15.30;;;10.35;;
75486;SDS011;65009;44.762;21.516;2023-02-01T14:17:48;20.20;;;11.52;;
75486;SDS011;65009;44.762;21.516;2023-02-01T14:23:02;23.03;;;13.07;;
75486;SDS011;65009;44.762;21.516;2023-02-01T14:25:32;22.73;;;13.93;;
75486;SDS011;65009;44.762;21.516;2023-02-01T14:27:58;22.40;;;12.87;;
75486;SDS011;65009;44.762;21.516;2023-02-01T14:30:24;22.17;;;13.10;;
75486;SDS011;65009;44.762;21.516;2023-02-01T14:32:51;29.93;;;15.53;;
75486;SDS011;65009;44.762;21.516;2023-02-01T14:35:20;21.20;;;12.13;;
75486;SDS011;65009;44.762;21.516;2023-02-01T14:37:50;21.10;;;11.93;;
75486;SDS011;65009;44.762;21.516;2023-02-01T14:40:19;32.20;;;17.10;;
75486;SDS011;65009;44.762;21.516;2023-02-01T14:42:49;26.58;;;15.00;;
75486;SDS011;65009;44.762;21.516;2023-02-01T14:52:42;19.77;;;11.20;;
75486;SDS011;65009;44.762;21.516;2023-02-01T14:55:11;15.30;;;9.90;;
75486;SDS011;65009;44.762;21.516;2023-02-01T14:57:39;17.60;;;10.80;;
75486;SDS011;65009;44.762;21.516;2023-02-01T15:00:28;23.07;;;13.23;;
75486;SDS011;65009;44.762;21.516;2023-02-01T15:02:53;34.43;;;19.93;;
75486;SDS011;65009;44.762;21.516;2023-02-01T15:05:28;27.97;;;16.47;;
75486;SDS011;65009;44.762;21.516;2023-02-01T15:08:19;20.33;;;12.20;;
75486;SDS011;65009;44.762;21.516;2023-02-01T15:10:47;17.10;;;11.00;;
75486;SDS011;65009;44.762;21.516;2023-02-01T15:13:22;19.80;;;11.20;;
75486;SDS011;65009;44.762;21.516;2023-02-01T15:18:27;29.83;;;13.50;;
75486;SDS011;65009;44.762;21.516;2023-02-01T15:20:58;22.97;;;13.77;;
75486;SDS011;65009;44.762;21.516;2023-02-01T15:23:28;26.83;;;15.73;;
75486;SDS011;65009;44.762;21.516;2023-02-01T15:25:54;32.43;;;18.03;;
75486;SDS011;65009;44.762;21.516;2023-02-01T15:28:20;20.60;;;13.33;;
75486;SDS011;65009;44.762;21.516;2023-02-01T15:31:01;56.50;;;30.60;;
75486;SDS011;65009;44.762;21.516;2023-02-01T15:33:27;33.30;;;18.13;;
75486;SDS011;65009;44.762;21.516;2023-02-01T15:35:55;31.33;;;16.90;;
75486;SDS011;65009;44.762;21.516;2023-02-01T15:41:07;72.77;;;38.13;;
75486;SDS011;65009;44.762;21.516;2023-02-01T15:43:38;36.67;;;19.23;;
75486;SDS011;65009;44.762;21.516;2023-02-01T15:46:09;23.20;;;15.50;;
75486;SDS011;65009;44.762;21.516;2023-02-01T15:49:11;60.23;;;38.67;;
75486;SDS011;65009;44.762;21.516;2023-02-01T15:51:28;118.45;;;57.03;;
75486;SDS011;65009;44.762;21.516;2023-02-01T15:54:02;70.53;;;35.07;;
75486;SDS011;65009;44.762;21.516;2023-02-01T15:56:36;39.67;;;21.77;;
75486;SDS011;65009;44.762;21.516;2023-02-01T15:59:12;26.83;;;15.83;;
75486;SDS011;65009;44.762;21.516;2023-02-01T16:01:39;57.67;;;35.80;;
75486;SDS011;65009;44.762;21.516;2023-02-01T16:06:51;224.90;;;128.67;;
75486;SDS011;65009;44.762;21.516;2023-02-01T16:09:19;313.90;;;182.83;;
75486;SDS011;65009;44.762;21.516;2023-02-01T16:14:12;100.37;;;56.33;;
75486;SDS011;65009;44.762;21.516;2023-02-01T16:16:38;101.40;;;51.33;;
75486;SDS011;65009;44.762;21.516;2023-02-01T16:19:04;89.20;;;47.87;;
75486;SDS011;65009;44.762;21.516;2023-02-01T16:21:30;76.60;;;41.97;;
75486;SDS011;65009;44.762;21.516;2023-02-01T16:23:56;101.57;;;56.97;;
75486;SDS011;65009;44.762;21.516;2023-02-01T16:26:24;116.97;;;73.03;;
75486;SDS011;65009;44.762;21.516;2023-02-01T16:28:50;121.20;;;73.53;;
75486;SDS011;65009;44.762;21.516;2023-02-01T16:31:17;107.80;;;62.63;;
75486;SDS011;65009;44.762;21.516;2023-02-01T16:33:49;136.13;;;82.77;;
75486;SDS011;65009;44.762;21.516;2023-02-01T16:36:16;136.10;;;79.67;;
75486;SDS011;65009;44.762;21.516;2023-02-01T16:38:43;146.57;;;85.43;;
75486;SDS011;65009;44.762;21.516;2023-02-01T16:41:11;185.13;;;102.03;;
75486;SDS011;65009;44.762;21.516;2023-02-01T16:43:39;146.23;;;78.60;;
75486;SDS011;65009;44.762;21.516;2023-02-01T16:46:05;113.10;;;60.27;;
75486;SDS011;65009;44.762;21.516;2023-02-01T16:48:35;126.40;;;64.90;;
75486;SDS011;65009;44.762;21.516;2023-02-01T16:51:04;111.53;;;59.53;;
75486;SDS011;65009;44.762;21.516;2023-02-01T16:53:33;102.30;;;56.70;;
75486;SDS011;65009;44.762;21.516;2023-02-01T16:55:59;96.47;;;53.43;;
75486;SDS011;65009;44.762;21.516;2023-02-01T16:58:27;83.47;;;46.80;;
75486;SDS011;65009;44.762;21.516;2023-02-01T17:00:54;71.47;;;43.07;;
75486;SDS011;65009;44.762;21.516;2023-02-01T17:03:20;53.97;;;32.17;;
75486;SDS011;65009;44.762;21.516;2023-02-01T17:05:48;57.87;;;32.83;;
75486;SDS011;65009;44.762;21.516;2023-02-01T17:08:17;66.53;;;37.83;;
75486;SDS011;65009;44.762;21.516;2023-02-01T17:10:44;77.83;;;42.97;;
75486;SDS011;65009;44.762;21.516;2023-02-01T17:13:14;77.80;;;42.50;;
75486;SDS011;65009;44.762;21.516;2023-02-01T17:15:44;88.37;;;45.30;;
75486;SDS011;65009;44.762;21.516;2023-02-01T17:18:13;91.33;;;48.53;;